Time;durP1;ratioP1;P1;durP2;ratioP2;P2;SDS_P1;SDS_P2;PMS_P1;PMS_P2;Temp;Humidity;BMP_temperature;BMP_pressure;BME280_temperature;BME280_humidity;BME280_pressure;Samples;Min_cycle;Max_cycle;Signal;HPM_P1;HPM_P2
2023/05/15 00:10:34;;;;;;;29.25;25.48;;;;;;;11.93;100.00;101312.91;3981115;28;20419;-84
2023/05/15 00:13:00;;;;;;;29.92;26.40;;;;;;;11.84;100.00;101310.69;5057012;28;20492;-84
2023/05/15 00:15:26;;;;;;;28.52;25.42;;;;;;;11.84;100.00;101300.03;5058710;28;20082;-85
2023/05/15 00:17:52;;;;;;;30.05;26.77;;;;;;;11.92;100.00;101311.19;5057681;28;20036;-84
2023/05/15 00:20:18;;;;;;;31.55;27.42;;;;;;;11.79;100.00;101310.03;5056548;28;20032;-84
2023/05/15 00:22:43;;;;;;;30.20;26.85;;;;;;;11.78;100.00;101302.09;5058928;28;20078;-84
2023/05/15 00:25:09;;;;;;;30.33;26.95;;;;;;;11.77;100.00;101303.91;5054662;28;20539;-84
2023/05/15 00:27:35;;;;;;;30.20;26.92;;;;;;;11.76;100.00;101294.16;5053880;28;20459;-84
2023/05/15 00:30:04;;;;;;;32.97;28.60;;;;;;;11.65;100.00;101292.00;5054289;28;20021;-84
2023/05/15 00:32:30;;;;;;;33.38;26.98;;;;;;;11.75;100.00;101284.44;5053571;28;20083;-83
2023/05/15 00:34:55;;;;;;;30.60;26.80;;;;;;;11.71;100.00;101280.22;5059978;28;20496;-83
2023/05/15 00:37:22;;;;;;;31.15;27.48;;;;;;;11.62;100.00;101284.19;5058513;28;20126;-83
2023/05/15 00:39:47;;;;;;;29.92;26.83;;;;;;;11.62;100.00;101281.53;5043502;28;20021;-83
2023/05/15 00:42:16;;;;;;;29.92;26.77;;;;;;;11.58;100.00;101282.59;5041087;28;20058;-83
2023/05/15 00:44:43;;;;;;;29.92;26.13;;;;;;;11.59;100.00;101278.13;5061326;28;20028;-81
2023/05/15 00:47:10;;;;;;;30.10;26.90;;;;;;;11.48;100.00;101284.81;5061942;28;20052;-83
2023/05/15 00:49:36;;;;;;;29.52;26.33;;;;;;;11.48;100.00;101282.16;5058568;28;20024;-84
2023/05/15 00:52:03;;;;;;;32.25;26.98;;;;;;;11.40;100.00;101280.78;5060562;28;20107;-83
2023/05/15 00:54:29;;;;;;;31.98;28.58;;;;;;;11.34;100.00;101281.09;5059571;28;20051;-83
2023/05/15 00:56:56;;;;;;;33.92;28.23;;;;;;;11.41;100.00;101279.84;5053510;28;20401;-83
2023/05/15 00:59:25;;;;;;;33.28;28.05;;;;;;;11.27;100.00;101280.50;5039357;28;20024;-82
2023/05/15 01:01:50;;;;;;;32.67;29.02;;;;;;;11.26;100.00;101272.59;5055222;28;20020;-83
2023/05/15 01:04:15;;;;;;;33.15;29.63;;;;;;;11.20;100.00;101269.28;5056233;28;20260;-83
2023/05/15 01:06:41;;;;;;;33.20;28.65;;;;;;;11.22;100.00;101269.22;5054620;28;20035;-83
2023/05/15 01:09:08;;;;;;;32.33;28.83;;;;;;;11.14;100.00;101272.22;5041989;28;20024;-83
2023/05/15 01:11:37;;;;;;;36.30;30.13;;;;;;;11.20;100.00;101269.28;5049818;28;20596;-83
2023/05/15 01:14:04;;;;;;;33.05;29.50;;;;;;;11.14;100.00;101276.69;5057200;28;20128;-83
2023/05/15 01:16:30;;;;;;;35.60;31.05;;;;;;;11.08;100.00;101272.53;5052608;28;20090;-83
2023/05/15 01:18:56;;;;;;;33.42;29.88;;;;;;;10.99;100.00;101264.94;5058331;28;20035;-84
2023/05/15 01:21:33;;;;;;;36.58;29.38;;;;;;;10.88;100.00;101273.41;5054818;28;20041;-82
2023/05/15 01:24:07;;;;;;;36.13;31.50;;;;;;;10.91;100.00;101267.97;5057865;28;20169;-83
2023/05/15 01:26:53;;;;;;;37.08;29.23;;;;;;;10.91;100.00;101254.66;5051973;28;20040;-83
2023/05/15 01:29:32;;;;;;;33.50;29.90;;;;;;;10.93;100.00;101266.09;5053330;28;20131;-82
2023/05/15 01:32:02;;;;;;;35.28;30.65;;;;;;;10.91;100.00;101265.31;5058653;28;20089;-83
2023/05/15 01:34:52;;;;;;;34.10;30.42;;;;;;;10.89;100.00;101267.16;5057302;28;20115;-82
2023/05/15 01:37:23;;;;;;;35.53;31.08;;;;;;;10.81;100.00;101266.63;5038689;28;20028;-83
2023/05/15 01:39:53;;;;;;;34.15;30.45;;;;;;;10.81;100.00;101261.31;5054505;28;20028;-83
2023/05/15 01:42:19;;;;;;;35.65;30.73;;;;;;;10.82;100.00;101249.72;5056269;28;20031;-84
2023/05/15 01:44:51;;;;;;;34.88;30.50;;;;;;;10.84;100.00;101258.53;5039724;28;20754;-83
2023/05/15 01:47:21;;;;;;;36.25;30.88;;;;;;;10.79;100.00;101257.00;5051004;28;20032;-83
2023/05/15 01:49:49;;;;;;;39.13;32.60;;;;;;;10.73;100.00;101266.97;5036255;28;20093;-83
2023/05/15 01:52:24;;;;;;;35.33;31.42;;;;;;;10.64;100.00;101256.75;5055938;28;20491;-83
2023/05/15 01:54:50;;;;;;;37.38;31.65;;;;;;;10.63;100.00;101257.69;5034067;28;20464;-83
2023/05/15 01:57:18;;;;;;;36.83;31.88;;;;;;;10.60;100.00;101255.16;5056199;28;20567;-84
2023/05/15 01:59:44;;;;;;;36.08;31.02;;;;;;;10.58;100.00;101259.69;5055512;28;20029;-83
2023/05/15 02:02:11;;;;;;;36.80;31.20;;;;;;;10.45;100.00;101264.69;5038163;28;20020;-83
2023/05/15 02:04:38;;;;;;;40.50;32.33;;;;;;;10.47;100.00;101253.97;5056253;28;20037;-83
2023/05/15 02:07:05;;;;;;;37.90;31.75;;;;;;;10.43;100.00;101250.56;5056040;28;20690;-83
2023/05/15 02:09:32;;;;;;;39.55;33.75;;;;;;;10.48;100.00;101259.22;5055876;28;20058;-83
2023/05/15 02:12:00;;;;;;;38.63;32.45;;;;;;;10.50;100.00;101250.31;5057399;28;20049;-83
2023/05/15 02:14:28;;;;;;;38.25;32.15;;;;;;;10.36;100.00;101253.56;5057773;28;20036;-82
2023/05/15 02:16:53;;;;;;;42.28;32.78;;;;;;;10.40;100.00;101258.69;5036912;28;20388;-83
2023/05/15 02:19:18;;;;;;;40.70;32.85;;;;;;;10.34;100.00;101256.31;5056685;28;20035;-83
2023/05/15 02:21:44;;;;;;;40.83;33.45;;;;;;;10.34;100.00;101255.44;5041102;28;20163;-83
2023/05/15 02:24:09;;;;;;;40.72;32.90;;;;;;;10.36;100.00;101245.56;5055280;28;20028;-84
2023/05/15 02:26:59;;;;;;;37.63;31.70;;;;;;;10.34;100.00;101245.66;5055674;28;20485;-82
2023/05/15 02:29:43;;;;;;;38.95;32.53;;;;;;;10.34;100.00;101250.97;5052722;28;20161;-83
2023/05/15 02:32:27;;;;;;;44.08;32.40;;;;;;;10.30;100.00;101243.19;5056350;28;20086;-83
2023/05/15 02:35:29;;;;;;;38.00;31.90;;;;;;;10.28;100.00;101245.03;5054411;28;20432;-84
2023/05/15 02:37:58;;;;;;;37.30;31.92;;;;;;;10.27;100.00;101245.97;5057670;28;20028;-83
2023/05/15 02:40:25;;;;;;;42.10;33.05;;;;;;;10.23;100.00;101243.41;5052561;28;20123;-83
2023/05/15 02:42:51;;;;;;;39.38;33.30;;;;;;;10.31;100.00;101242.25;5054614;28;20071;-83
2023/05/15 02:45:18;;;;;;;38.35;32.90;;;;;;;10.27;100.00;101243.31;5058110;28;20723;-83
2023/05/15 02:47:44;;;;;;;42.38;33.42;;;;;;;10.28;100.00;101248.56;5060527;28;20040;-83
2023/05/15 02:50:10;;;;;;;40.72;34.25;;;;;;;10.25;100.00;101247.84;5055635;28;20515;-83
2023/05/15 02:52:35;;;;;;;38.90;33.38;;;;;;;10.16;100.00;101255.28;5061126;28;20107;-83
2023/05/15 02:55:01;;;;;;;41.40;34.35;;;;;;;10.19;100.00;101263.09;5053997;28;20327;-83
2023/05/15 02:57:28;;;;;;;39.83;34.85;;;;;;;10.14;100.00;101262.44;5062985;28;20036;-83
2023/05/15 02:59:55;;;;;;;41.70;34.35;;;;;;;10.15;100.00;101256.19;5062142;28;20043;-83
2023/05/15 03:02:20;;;;;;;38.88;34.67;;;;;;;10.09;100.00;101256.44;5060552;28;20375;-83
2023/05/15 03:04:45;;;;;;;46.65;37.78;;;;;;;10.05;100.00;101268.16;5056144;28;20021;-83
2023/05/15 03:07:13;;;;;;;43.53;36.95;;;;;;;10.06;100.00;101261.03;5057053;28;20433;-84
2023/05/15 03:09:39;;;;;;;47.65;38.13;;;;;;;9.98;100.00;101258.69;5040859;28;20056;-83
2023/05/15 03:12:05;;;;;;;45.35;37.20;;;;;;;9.94;100.00;101252.63;5059226;28;20291;-83
2023/05/15 03:14:30;;;;;;;48.58;38.30;;;;;;;9.98;100.00;101245.38;5059647;28;20442;-83
2023/05/15 03:16:55;;;;;;;49.78;40.00;;;;;;;9.96;100.00;101248.13;5061024;28;20036;-83
2023/05/15 03:19:21;;;;;;;49.83;40.63;;;;;;;9.91;100.00;101250.13;5062648;28;20416;-83
2023/05/15 03:21:46;;;;;;;50.00;40.78;;;;;;;9.89;100.00;101257.28;5054109;28;20405;-83
2023/05/15 03:24:11;;;;;;;50.83;42.25;;;;;;;9.90;100.00;101248.38;5055122;28;20163;-83
2023/05/15 03:26:39;;;;;;;56.10;42.35;;;;;;;9.87;100.00;101248.50;5059548;28;20150;-84
2023/05/15 03:29:04;;;;;;;49.95;40.55;;;;;;;9.89;100.00;101249.31;5059370;28;20398;-84
2023/05/15 03:31:29;;;;;;;50.85;41.33;;;;;;;9.89;100.00;101251.09;5053354;28;20040;-83
2023/05/15 03:33:55;;;;;;;48.97;40.78;;;;;;;9.89;100.00;101257.28;5052375;28;20036;-84
2023/05/15 03:36:21;;;;;;;53.58;43.17;;;;;;;9.81;100.00;101245.22;5052316;28;20094;-83
2023/05/15 03:38:46;;;;;;;53.08;41.33;;;;;;;9.78;100.00;101251.56;5051663;28;20032;-84
2023/05/15 03:41:12;;;;;;;52.53;43.00;;;;;;;9.75;100.00;101249.00;5053094;28;20048;-83
2023/05/15 03:43:37;;;;;;;49.75;41.38;;;;;;;9.75;100.00;101243.69;5051868;28;20020;-83
2023/05/15 03:46:02;;;;;;;51.67;41.75;;;;;;;9.66;100.00;101241.44;5051552;28;20036;-83
2023/05/15 03:48:27;;;;;;;53.45;41.95;;;;;;;9.59;100.00;101242.59;5053696;28;20100;-83
2023/05/15 03:50:53;;;;;;;50.92;42.20;;;;;;;9.58;100.00;101239.06;5052797;28;20025;-83
2023/05/15 03:53:18;;;;;;;56.70;43.70;;;;;;;9.53;100.00;101235.75;5051735;28;20241;-83
2023/05/15 03:55:44;;;;;;;53.55;42.35;;;;;;;9.59;100.00;101234.63;5052561;28;20021;-82
2023/05/15 03:58:09;;;;;;;54.75;43.13;;;;;;;9.54;100.00;101234.81;5053213;28;20065;-83
2023/05/15 04:00:35;;;;;;;55.60;44.17;;;;;;;9.47;100.00;101228.84;5052794;28;20546;-83
2023/05/15 04:03:00;;;;;;;53.03;43.25;;;;;;;9.52;100.00;101236.66;5061736;28;20016;-83
2023/05/15 04:05:26;;;;;;;56.45;45.03;;;;;;;9.53;100.00;101240.16;5055210;28;20032;-82
2023/05/15 04:07:51;;;;;;;56.78;44.72;;;;;;;9.45;100.00;101235.19;5054269;28;20217;-82
2023/05/15 04:10:17;;;;;;;54.83;45.00;;;;;;;9.43;100.00;101240.53;5056465;28;20540;-83
2023/05/15 04:12:42;;;;;;;53.65;43.20;;;;;;;9.41;100.00;101230.91;5060703;28;20103;-82
2023/05/15 04:15:17;;;;;;;56.63;44.38;;;;;;;9.44;100.00;101233.44;5056933;28;20113;-83
2023/05/15 04:17:45;;;;;;;57.78;44.25;;;;;;;9.34;100.00;101229.41;5037438;28;20024;-83
2023/05/15 04:20:13;;;;;;;54.88;43.67;;;;;;;9.36;100.00;101233.72;5060089;28;20082;-83
2023/05/15 04:22:38;;;;;;;57.53;45.05;;;;;;;9.32;100.00;101224.19;5059057;28;20408;-83
2023/05/15 04:25:04;;;;;;;57.88;44.95;;;;;;;9.32;100.00;101226.84;5058004;28;20032;-83
2023/05/15 04:27:29;;;;;;;56.47;45.10;;;;;;;9.32;100.00;101236.56;5052238;28;20584;-83
2023/05/15 04:29:55;;;;;;;58.45;43.90;;;;;;;9.36;100.00;101244.34;5051167;28;20363;-83
2023/05/15 04:32:21;;;;;;;55.47;42.45;;;;;;;9.40;100.00;101247.75;5058276;28;20416;-83
2023/05/15 04:34:46;;;;;;;56.83;44.83;;;;;;;9.38;100.00;101246.97;5053030;28;20029;-83
2023/05/15 04:37:11;;;;;;;58.53;44.90;;;;;;;9.33;100.00;101243.63;5055774;28;20077;-83
2023/05/15 04:39:37;;;;;;;55.22;45.17;;;;;;;9.32;100.00;101242.78;5057581;28;20103;-84
2023/05/15 04:42:03;;;;;;;61.85;46.10;;;;;;;9.27;100.00;101255.34;5053463;28;20020;-83
2023/05/15 04:44:28;;;;;;;59.33;45.42;;;;;;;9.27;100.00;101258.00;5054690;28;20028;-83
2023/05/15 04:46:53;;;;;;;61.05;47.13;;;;;;;9.35;100.00;101266.53;5060240;28;20039;-82
2023/05/15 04:49:19;;;;;;;60.60;47.53;;;;;;;9.35;100.00;101268.34;5058555;28;20038;-83
2023/05/15 04:51:44;;;;;;;59.13;46.30;;;;;;;9.37;100.00;101264.69;5061169;28;20392;-83
2023/05/15 04:54:09;;;;;;;61.63;48.00;;;;;;;9.43;100.00;101272.41;5057621;28;20043;-83
2023/05/15 04:56:35;;;;;;;66.75;49.70;;;;;;;9.48;100.00;101275.75;5055904;28;20024;-84
2023/05/15 04:59:01;;;;;;;65.63;50.03;;;;;;;9.51;100.00;101277.44;5055793;28;20029;-83
2023/05/15 05:01:26;;;;;;;66.47;50.60;;;;;;;9.57;100.00;101273.66;5058512;28;20032;-83
2023/05/15 05:03:51;;;;;;;63.53;50.63;;;;;;;9.57;100.00;101273.66;5056302;28;20325;-83
2023/05/15 05:06:17;;;;;;;64.95;49.78;;;;;;;9.67;100.00;101275.91;5059679;28;20089;-83
2023/05/15 05:08:42;;;;;;;66.68;52.05;;;;;;;9.62;100.00;101277.88;5054484;28;20120;-83
2023/05/15 05:11:08;;;;;;;67.97;51.38;;;;;;;9.73;100.00;101270.31;5057331;28;20623;-83
2023/05/15 05:13:33;;;;;;;68.32;51.22;;;;;;;9.82;100.00;101282.38;5039970;28;20659;-84
2023/05/15 05:15:58;;;;;;;62.88;49.78;;;;;;;9.94;100.00;101275.69;5054955;28;20171;-83
2023/05/15 05:18:24;;;;;;;64.57;50.08;;;;;;;10.04;100.00;101276.19;5059066;28;20476;-83
2023/05/15 05:20:57;;;;;;;70.80;50.25;;;;;;;10.04;100.00;101286.84;5059569;28;20312;-84
2023/05/15 05:23:22;;;;;;;64.78;49.47;;;;;;;10.07;100.00;101281.38;5056485;28;20036;-83
2023/05/15 05:25:47;;;;;;;60.58;47.97;;;;;;;10.11;100.00;101285.63;5057145;28;20059;-84
2023/05/15 05:28:13;;;;;;;66.05;51.00;;;;;;;10.17;100.00;101282.72;5059643;28;20120;-84
2023/05/15 05:30:38;;;;;;;63.15;48.65;;;;;;;10.19;100.00;101286.19;5039347;28;20396;-83
2023/05/15 05:33:04;;;;;;;64.63;49.78;;;;;;;10.27;100.00;101285.88;5056544;28;20027;-83
2023/05/15 05:35:29;;;;;;;61.50;48.13;;;;;;;10.26;100.00;101282.38;5052735;28;20024;-83
2023/05/15 05:37:54;;;;;;;74.13;55.13;;;;;;;10.28;100.00;101287.59;5061735;28;20035;-84
2023/05/15 05:40:20;;;;;;;63.95;47.70;;;;;;;10.29;100.00;101289.38;5044708;28;20020;-85
2023/05/15 05:42:45;;;;;;;62.97;47.85;;;;;;;10.32;100.00;101295.41;5056904;28;20028;-86
2023/05/15 05:45:11;;;;;;;64.07;47.85;;;;;;;10.35;100.00;101289.94;5056523;28;20056;-87
2023/05/15 05:47:36;;;;;;;61.38;45.28;;;;;;;10.45;100.00;101301.09;5057948;28;20463;-83
2023/05/15 05:50:02;;;;;;;59.60;44.47;;;;;;;10.53;100.00;101293.59;5055727;28;20161;-84
2023/05/15 05:52:28;;;;;;;58.78;43.92;;;;;;;10.51;100.00;101283.97;5056921;28;20715;-85
2023/05/15 05:54:53;;;;;;;57.58;43.75;;;;;;;10.63;100.00;101286.97;5048197;28;20240;-85
2023/05/15 05:57:18;;;;;;;55.63;43.33;;;;;;;10.72;100.00;101301.66;5053314;28;20025;-83
2023/05/15 05:59:45;;;;;;;55.35;43.42;;;;;;;10.85;100.00;101300.19;5059027;28;20131;-82
2023/05/15 06:02:10;;;;;;;55.80;41.13;;;;;;;10.77;99.56;101304.97;5051962;28;20021;-82
2023/05/15 06:04:36;;;;;;;55.47;43.30;;;;;;;10.72;99.77;101301.66;5054852;28;20366;-81
2023/05/15 06:07:02;;;;;;;54.47;40.85;;;;;;;10.92;99.17;101295.47;5058236;28;20370;-83
2023/05/15 06:09:28;;;;;;;51.92;41.08;;;;;;;11.27;98.81;101307.16;5059526;28;20617;-83
2023/05/15 06:11:53;;;;;;;49.72;39.53;;;;;;;11.40;96.40;101294.97;5056248;28;20452;-82
2023/05/15 06:14:18;;;;;;;50.25;39.38;;;;;;;11.49;95.58;101301.69;5053300;28;20025;-82
2023/05/15 06:16:44;;;;;;;50.42;38.97;;;;;;;11.98;95.22;101303.81;5033077;28;21072;-82
2023/05/15 06:19:09;;;;;;;46.60;38.42;;;;;;;12.17;92.37;101304.66;5050126;28;20146;-82
2023/05/15 06:21:35;;;;;;;47.45;37.22;;;;;;;12.23;90.57;101311.47;5059824;28;20330;-82
2023/05/15 06:24:00;;;;;;;47.67;38.17;;;;;;;12.12;90.97;101304.00;5058258;28;20024;-83
2023/05/15 06:26:25;;;;;;;42.38;33.92;;;;;;;12.17;91.33;101305.50;5059417;28;20258;-83
2023/05/15 06:28:51;;;;;;;42.25;34.58;;;;;;;12.11;90.74;101311.13;5046803;28;20025;-83
2023/05/15 06:31:16;;;;;;;43.95;35.45;;;;;;;11.87;90.21;101305.22;5058896;28;20020;-82
2023/05/15 06:33:41;;;;;;;47.58;38.10;;;;;;;11.71;90.90;101302.41;5043303;28;20525;-83
2023/05/15 06:36:07;;;;;;;47.80;36.72;;;;;;;11.58;92.22;101306.59;5041887;28;20033;-83
2023/05/15 06:38:32;;;;;;;50.75;38.78;;;;;;;11.58;93.33;101305.69;5058295;28;20082;-84
2023/05/15 06:40:58;;;;;;;47.45;37.97;;;;;;;11.96;92.52;101291.44;5037548;28;20478;-84
2023/05/15 06:43:23;;;;;;;44.63;35.53;;;;;;;12.30;91.40;101300.41;5059195;28;20032;-84
2023/05/15 06:45:49;;;;;;;47.88;36.55;;;;;;;12.64;88.78;101296.88;5059528;28;20524;-84
2023/05/15 06:48:14;;;;;;;44.88;35.65;;;;;;;12.77;87.65;101298.88;5055496;28;20075;-82
2023/05/15 06:50:39;;;;;;;39.83;33.13;;;;;;;13.06;86.20;101305.34;5037241;28;20024;-83
2023/05/15 06:53:05;;;;;;;39.08;32.97;;;;;;;13.02;84.64;101299.31;5056879;28;20728;-84
2023/05/15 06:55:32;;;;;;;39.03;32.47;;;;;;;12.94;84.42;101307.72;5059506;28;20047;-83
2023/05/15 06:57:58;;;;;;;39.40;31.92;;;;;;;12.77;84.27;101302.41;5062137;28;20112;-84
2023/05/15 07:00:23;;;;;;;40.00;33.08;;;;;;;12.83;85.59;101309.25;5056728;28;20108;-81
2023/05/15 07:02:48;;;;;;;38.10;31.75;;;;;;;12.93;85.24;101305.16;5063756;28;20505;-81
2023/05/15 07:05:14;;;;;;;41.33;33.78;;;;;;;13.10;83.69;101305.09;5062460;28;20469;-82
2023/05/15 07:07:39;;;;;;;37.58;33.45;;;;;;;13.52;81.77;101305.53;5064415;28;20530;-82
2023/05/15 07:10:05;;;;;;;37.58;30.80;;;;;;;13.94;80.36;101311.13;5062952;28;20058;-82
2023/05/15 07:12:31;;;;;;;34.55;30.00;;;;;;;13.95;77.85;101306.63;5064707;28;20104;-81
2023/05/15 07:14:57;;;;;;;33.67;29.95;;;;;;;14.18;76.77;101305.31;5057386;28;20055;-81
2023/05/15 07:17:22;;;;;;;36.53;30.35;;;;;;;14.44;76.21;101298.41;5059327;28;20485;-81
2023/05/15 07:19:48;;;;;;;33.80;28.65;;;;;;;14.76;74.53;101296.50;5060370;28;20037;-83
2023/05/15 07:22:13;;;;;;;34.90;31.05;;;;;;;15.30;74.35;101293.13;5060630;28;20052;-81
2023/05/15 07:24:39;;;;;;;34.53;30.05;;;;;;;15.78;71.06;101288.31;5056903;28;20044;-81
2023/05/15 07:27:04;;;;;;;32.60;28.95;;;;;;;16.41;70.14;101298.38;5060536;28;20047;-81
2023/05/15 07:29:30;;;;;;;35.42;31.27;;;;;;;16.76;67.13;101289.75;5044486;28;20420;-81
2023/05/15 07:31:55;;;;;;;38.90;32.35;;;;;;;16.67;65.73;101291.22;5058919;28;20481;-81
2023/05/15 07:34:21;;;;;;;36.47;32.55;;;;;;;16.25;66.23;101293.19;5054274;28;20036;-81
2023/05/15 07:36:46;;;;;;;35.65;30.80;;;;;;;16.44;66.70;101288.28;5061808;28;20086;-80
2023/05/15 07:39:12;;;;;;;35.08;31.27;;;;;;;16.99;66.62;101282.75;5060198;28;20495;-81
2023/05/15 07:41:37;;;;;;;35.40;31.60;;;;;;;17.27;62.88;101287.91;5063331;28;20123;-82
2023/05/15 07:44:02;;;;;;;40.67;33.75;;;;;;;17.85;61.33;101291.75;5054545;28;20455;-81
2023/05/15 07:46:28;;;;;;;39.30;34.35;;;;;;;18.25;60.79;101285.19;5060509;28;20127;-81
2023/05/15 07:48:53;;;;;;;39.67;34.45;;;;;;;18.82;59.35;101284.41;5065414;28;20029;-83
2023/05/15 07:51:18;;;;;;;41.08;36.70;;;;;;;19.27;57.03;101287.97;5062802;28;20054;-81
2023/05/15 07:53:44;;;;;;;44.08;39.25;;;;;;;19.58;56.88;101282.78;5060753;28;20032;-81
2023/05/15 07:56:09;;;;;;;42.42;36.85;;;;;;;19.37;54.71;101280.84;5063982;28;20115;-82
2023/05/15 07:58:36;;;;;;;44.95;37.88;;;;;;;19.25;56.25;101289.06;5055877;28;20024;-81
2023/05/15 08:01:02;;;;;;;46.95;40.17;;;;;;;19.40;55.92;101283.31;5061079;28;20029;-82
2023/05/15 08:03:27;;;;;;;44.47;39.55;;;;;;;19.80;57.22;101285.44;5058677;28;20480;-82
2023/05/15 08:05:52;;;;;;;44.25;39.47;;;;;;;20.20;53.61;101286.69;5040837;28;20378;-81
2023/05/15 08:08:18;;;;;;;46.95;40.47;;;;;;;20.53;51.98;101283.00;5056446;28;20036;-82
2023/05/15 08:10:43;;;;;;;46.25;40.47;;;;;;;20.53;51.86;101281.13;5060676;28;20048;-82
2023/05/15 08:13:08;;;;;;;44.28;39.47;;;;;;;21.11;50.46;101280.63;5058864;28;20020;-81
2023/05/15 08:15:34;;;;;;;43.70;38.65;;;;;;;21.58;48.69;101281.81;5058810;28;20065;-82
2023/05/15 08:18:00;;;;;;;43.83;38.90;;;;;;;21.80;48.54;101272.56;5047282;28;20060;-82
2023/05/15 08:20:25;;;;;;;44.28;38.65;;;;;;;22.01;47.11;101279.72;5054321;28;20051;-81
2023/05/15 08:22:51;;;;;;;45.40;39.90;;;;;;;22.29;46.17;101283.47;5056733;28;20039;-81
2023/05/15 08:25:16;;;;;;;42.42;37.83;;;;;;;22.47;45.19;101286.31;5052984;28;20089;-82
2023/05/15 08:27:41;;;;;;;41.50;37.03;;;;;;;22.67;43.64;101281.72;5037081;28;20678;-82
2023/05/15 08:30:07;;;;;;;43.25;38.65;;;;;;;23.05;43.21;101280.78;5045621;28;20468;-82
2023/05/15 08:32:36;;;;;;;41.25;36.78;;;;;;;23.42;44.11;101274.50;5049406;28;20382;-82
2023/05/15 08:35:01;;;;;;;40.72;36.63;;;;;;;23.67;41.02;101270.22;5052795;28;20380;-82
2023/05/15 08:37:27;;;;;;;41.03;36.80;;;;;;;23.92;40.94;101272.19;5054776;28;20406;-81
2023/05/15 08:39:52;;;;;;;40.05;35.95;;;;;;;24.10;40.29;101272.19;5037680;28;20647;-82
2023/05/15 08:42:22;;;;;;;40.05;36.05;;;;;;;24.30;39.24;101279.19;5047997;28;20029;-81
2023/05/15 08:44:49;;;;;;;39.45;35.42;;;;;;;24.71;38.04;101273.25;5056385;28;20028;-82
2023/05/15 08:47:14;;;;;;;37.55;33.78;;;;;;;24.71;37.65;101271.38;5045695;28;20734;-82
2023/05/15 08:49:40;;;;;;;36.58;32.97;;;;;;;24.95;37.72;101261.63;5057032;28;20016;-82
2023/05/15 08:52:06;;;;;;;37.33;33.63;;;;;;;25.25;36.97;101272.06;5062700;28;20380;-82
2023/05/15 08:54:32;;;;;;;36.72;32.97;;;;;;;25.15;36.42;101268.59;5056618;28;20029;-82
2023/05/15 08:56:59;;;;;;;33.08;29.77;;;;;;;25.14;35.72;101264.16;5040957;28;20423;-82
2023/05/15 08:59:24;;;;;;;33.67;30.13;;;;;;;25.29;36.80;101258.94;5058043;28;20037;-83
2023/05/15 09:01:50;;;;;;;36.53;32.58;;;;;;;25.40;36.42;101257.78;5060639;28;20042;-82
2023/05/15 09:04:16;;;;;;;33.53;30.27;;;;;;;25.28;36.18;101260.81;5059843;28;20035;-82
2023/05/15 09:06:43;;;;;;;32.95;29.65;;;;;;;24.65;37.36;101266.56;5058451;28;20025;-81
2023/05/15 09:09:12;;;;;;;34.20;30.83;;;;;;;24.32;38.02;101273.56;5055673;28;20110;-82
2023/05/15 09:11:41;;;;;;;32.90;29.48;;;;;;;24.55;38.67;101271.25;5062488;28;20043;-83
2023/05/15 09:14:08;;;;;;;32.97;29.67;;;;;;;24.79;36.55;101265.13;5052866;28;20340;-81
2023/05/15 09:16:34;;;;;;;33.88;30.45;;;;;;;24.02;38.26;101274.84;5055275;28;20033;-83
2023/05/15 09:18:59;;;;;;;34.08;30.38;;;;;;;24.22;37.81;101272.81;5040577;28;20133;-84
2023/05/15 09:21:27;;;;;;;32.90;29.50;;;;;;;24.05;38.62;101274.53;5056732;28;20024;-82
2023/05/15 09:23:55;;;;;;;32.50;29.17;;;;;;;24.29;37.78;101280.19;5055796;28;20024;-82
2023/05/15 09:26:20;;;;;;;32.20;29.02;;;;;;;25.08;37.37;101275.66;5039631;28;20512;-82
2023/05/15 09:28:47;;;;;;;32.92;29.52;;;;;;;25.21;36.31;101275.28;5043691;28;20028;-84
2023/05/15 09:31:12;;;;;;;33.10;29.90;;;;;;;25.17;36.03;101269.28;5057486;28;20024;-83
2023/05/15 09:33:41;;;;;;;34.30;30.83;;;;;;;25.22;36.82;101272.38;5054220;28;20404;-83
2023/05/15 09:36:07;;;;;;;34.42;30.88;;;;;;;24.76;36.87;101270.88;5059509;28;20032;-82
2023/05/15 09:38:38;;;;;;;32.17;28.98;;;;;;;24.92;37.51;101268.28;5057186;28;20028;-82
2023/05/15 09:41:06;;;;;;;33.03;29.63;;;;;;;25.66;36.89;101264.00;5059280;28;20036;-82
2023/05/15 09:43:40;;;;;;;33.95;30.58;;;;;;;25.79;36.11;101269.88;5051310;28;20111;-82
2023/05/15 09:46:11;;;;;;;32.45;29.13;;;;;;;25.75;37.11;101259.41;5057171;28;20028;-83
2023/05/15 09:48:37;;;;;;;32.28;28.98;;;;;;;25.24;37.09;101264.88;5059975;28;20618;-83
2023/05/15 09:51:06;;;;;;;31.40;28.13;;;;;;;25.03;37.99;101264.41;5058188;28;20036;-83
2023/05/15 09:53:31;;;;;;;29.83;26.92;;;;;;;24.43;37.44;101265.19;5056659;28;20629;-82
2023/05/15 09:55:57;;;;;;;28.27;25.38;;;;;;;23.24;39.18;101264.44;5058444;28;20028;-83
2023/05/15 09:58:22;;;;;;;30.65;27.50;;;;;;;22.00;41.22;101272.59;5066475;28;20510;-84
2023/05/15 10:00:48;;;;;;;33.10;29.80;;;;;;;21.49;43.27;101268.25;5056519;28;20124;-83
2023/05/15 10:03:13;;;;;;;31.00;27.30;;;;;;;20.81;45.00;101276.88;5058562;28;20051;-83
2023/05/15 10:05:40;;;;;;;30.10;26.95;;;;;;;20.37;47.04;101280.69;5055836;28;20553;-83
2023/05/15 10:08:06;;;;;;;31.40;28.10;;;;;;;19.88;48.09;101276.72;5055215;28;20115;-82
2023/05/15 10:10:31;;;;;;;29.98;26.75;;;;;;;19.53;48.91;101280.47;5054845;28;20052;-83
2023/05/15 10:13:02;;;;;;;31.40;27.90;;;;;;;18.91;51.14;101278.28;5056294;28;20032;-82
2023/05/15 10:15:28;;;;;;;31.25;28.02;;;;;;;18.83;52.24;101276.19;5053609;28;20134;-82
2023/05/15 10:17:54;;;;;;;32.05;28.83;;;;;;;18.77;52.56;101276.66;5057726;28;20306;-82
2023/05/15 10:20:23;;;;;;;31.77;28.35;;;;;;;18.79;54.01;101274.69;5056374;28;20039;-83
2023/05/15 10:22:50;;;;;;;30.90;27.70;;;;;;;18.69;53.42;101273.69;5057513;28;20032;-82
2023/05/15 10:25:31;;;;;;;32.53;29.23;;;;;;;18.70;53.95;101274.56;5054465;28;20362;-82
2023/05/15 10:27:57;;;;;;;34.47;30.98;;;;;;;18.39;54.73;101288.56;5038274;28;20032;-83
2023/05/15 10:30:24;;;;;;;33.78;30.38;;;;;;;18.14;55.91;101283.28;5055997;28;20248;-83
2023/05/15 10:32:50;;;;;;;33.70;29.85;;;;;;;18.10;56.67;101287.19;5047989;28;20021;-84
2023/05/15 10:35:16;;;;;;;33.08;29.38;;;;;;;17.91;57.63;101282.34;5052919;28;20029;-81
2023/05/15 10:37:45;;;;;;;34.35;29.88;;;;;;;17.95;57.31;101282.97;5059423;28;20742;-83
2023/05/15 10:40:13;;;;;;;33.78;30.10;;;;;;;17.77;58.23;101286.06;5058163;28;20107;-82
2023/05/15 10:42:40;;;;;;;34.20;30.58;;;;;;;17.73;58.71;101275.63;5057450;28;20033;-82
2023/05/15 10:45:07;;;;;;;33.10;29.65;;;;;;;17.84;58.79;101281.94;5055590;28;20509;-83
2023/05/15 10:47:34;;;;;;;32.00;28.67;;;;;;;17.82;58.53;101283.03;5056727;28;20048;-81
2023/05/15 10:50:00;;;;;;;31.25;27.95;;;;;;;17.93;59.80;101275.00;5058894;28;20081;-82
2023/05/15 10:52:25;;;;;;;32.88;29.33;;;;;;;18.20;58.82;101277.47;5059155;28;20031;-84
2023/05/15 10:54:55;;;;;;;31.52;28.13;;;;;;;18.26;58.55;101274.28;5061381;28;20189;-84
2023/05/15 10:57:21;;;;;;;33.55;28.00;;;;;;;18.45;57.99;101275.59;5052742;28;20119;-84
2023/05/15 10:59:47;;;;;;;31.60;28.30;;;;;;;18.31;56.91;101280.19;5056287;28;20033;-82
2023/05/15 11:02:28;;;;;;;29.98;26.80;;;;;;;18.40;58.14;101276.78;5060317;28;20051;-82
2023/05/15 11:05:01;;;;;;;30.10;26.98;;;;;;;18.55;57.48;101271.19;5052617;28;20219;-82
2023/05/15 11:07:27;;;;;;;33.78;27.27;;;;;;;18.50;57.41;101281.47;5040834;28;20626;-82
2023/05/15 11:09:53;;;;;;;30.83;27.58;;;;;;;18.30;57.66;101278.47;5045786;28;20039;-83
2023/05/15 11:12:19;;;;;;;29.90;26.90;;;;;;;17.96;58.83;101279.31;5057102;28;20044;-83
2023/05/15 11:14:50;;;;;;;30.05;26.27;;;;;;;18.11;60.21;101289.78;5056289;28;20028;-83